createdAt,value
2023-12-07T06:01:37.097Z,620.00
2023-12-07T06:02:09.682Z,621.00
2023-12-07T06:03:14.366Z,621.00
2023-12-07T06:04:08.760Z,621.00
2023-12-07T06:05:08.784Z,622.00
2023-12-07T06:06:08.767Z,619.00
2023-12-07T06:07:09.964Z,620.00
2023-12-07T06:08:11.833Z,615.00
2023-12-07T06:09:11.311Z,612.00
2023-12-07T06:10:08.827Z,613.00
2023-12-07T06:11:08.789Z,610.00
2023-12-07T06:12:08.773Z,608.00
2023-12-07T06:13:08.852Z,605.00
2023-12-07T06:14:08.760Z,605.00
2023-12-07T06:15:08.785Z,604.00
2023-12-07T06:16:08.779Z,605.00
2023-12-07T06:17:08.779Z,602.00
2023-12-07T06:18:08.813Z,600.00
2023-12-07T06:19:08.909Z,598.00
2023-12-07T06:20:08.777Z,600.00
2023-12-07T06:21:08.779Z,599.00
2023-12-07T06:22:08.846Z,598.00
2023-12-07T06:23:08.769Z,597.00
2023-12-07T06:24:08.788Z,598.00
2023-12-07T06:25:08.798Z,599.00
2023-12-07T06:26:08.782Z,600.00
2023-12-07T06:27:08.791Z,594.00
2023-12-07T06:28:08.874Z,594.00
2023-12-07T08:12:43.425Z,803.00
2023-12-07T08:13:09.457Z,802.00
2023-12-07T08:14:09.417Z,804.00
2023-12-07T08:15:09.467Z,808.00
2023-12-07T08:16:09.396Z,821.00
2023-12-07T08:17:09.436Z,1123.00
2023-12-07T08:18:09.442Z,913.00
2023-12-07T08:19:09.489Z,1035.00
2023-12-07T08:20:09.418Z,894.00
2023-12-07T08:21:09.494Z,872.00
2023-12-07T08:22:09.457Z,878.00
2023-12-07T08:23:09.407Z,887.00
2023-12-07T08:24:09.415Z,883.00
2023-12-07T08:25:11.647Z,882.00
2023-12-07T08:26:09.399Z,880.00
2023-12-07T08:27:09.414Z,876.00
2023-12-07T08:28:10.243Z,872.00
2023-12-07T08:29:10.606Z,872.00
2023-12-07T08:30:09.437Z,874.00
2023-12-07T08:31:09.437Z,876.00
2023-12-07T08:32:09.425Z,880.00
2023-12-07T08:33:09.538Z,884.00
2023-12-07T08:34:09.531Z,889.00
2023-12-07T08:35:12.227Z,892.00
2023-12-07T08:36:09.445Z,896.00
2023-12-07T08:37:09.479Z,898.00
2023-12-07T08:38:09.442Z,899.00
2023-12-07T08:39:09.441Z,897.00
2023-12-07T08:40:09.516Z,895.00
2023-12-07T08:41:09.446Z,891.00
2023-12-07T08:42:09.455Z,883.00
2023-12-07T08:43:09.465Z,876.00
2023-12-07T08:44:09.432Z,868.00
2023-12-07T08:45:09.432Z,865.00
2023-12-07T08:46:09.468Z,869.00
2023-12-07T08:47:09.431Z,881.00
2023-12-07T08:48:09.594Z,926.00
2023-12-07T08:49:10.981Z,929.00
2023-12-07T08:50:09.463Z,940.00
2023-12-07T08:51:09.559Z,956.00
2023-12-07T08:52:22.300Z,964.00
2023-12-07T08:53:10.580Z,967.00
2023-12-07T08:54:09.468Z,971.00
2023-12-07T08:55:09.458Z,975.00
2023-12-07T08:56:09.452Z,981.00
2023-12-07T08:57:09.464Z,992.00
2023-12-07T08:58:09.464Z,1003.00
2023-12-07T08:59:09.456Z,1016.00
2023-12-07T09:00:09.456Z,1025.00
2023-12-07T09:01:13.374Z,1035.00
2023-12-07T09:02:10.565Z,1046.00
2023-12-07T09:03:09.525Z,1056.00
2023-12-07T09:04:09.541Z,1064.00
2023-12-07T09:05:09.488Z,1089.00
2023-12-07T09:06:09.588Z,1094.00
2023-12-07T09:07:09.563Z,1093.00
2023-12-07T09:08:09.656Z,1089.00
2023-12-07T09:09:09.511Z,1095.00
2023-12-07T09:10:09.628Z,1110.00
2023-12-07T09:11:09.473Z,1110.00
2023-12-07T09:12:09.529Z,1104.00
2023-12-07T09:13:09.549Z,1096.00
2023-12-07T09:14:09.499Z,1089.00
2023-12-07T09:15:09.595Z,1086.00
2023-12-07T09:16:09.514Z,1082.00
2023-12-07T09:17:09.717Z,1085.00
2023-12-07T09:18:09.530Z,1091.00
2023-12-07T09:19:09.544Z,1098.00
2023-12-07T09:20:09.491Z,1098.00
2023-12-07T09:21:09.522Z,1091.00
2023-12-07T09:22:09.518Z,1086.00
2023-12-07T09:23:09.604Z,1086.00
2023-12-07T09:24:09.513Z,1075.00
2023-12-07T09:25:09.542Z,1070.00
2023-12-07T09:26:09.563Z,1063.00
2023-12-07T09:27:09.565Z,1064.00
2023-12-07T09:28:09.650Z,1058.00
2023-12-07T09:29:09.612Z,1053.00
2023-12-07T09:30:09.620Z,1035.00
2023-12-07T09:31:09.661Z,1005.00
2023-12-07T09:32:09.643Z,1006.00
2023-12-07T09:33:09.758Z,986.00
2023-12-07T09:34:12.665Z,973.00
2023-12-07T09:35:09.741Z,932.00
2023-12-07T09:36:09.695Z,950.00
2023-12-07T09:37:09.753Z,980.00
2023-12-07T09:38:09.712Z,992.00
2023-12-07T09:39:17.106Z,1022.00
2023-12-07T09:40:17.151Z,1039.00
2023-12-07T09:41:17.196Z,1030.00
2023-12-07T09:42:18.784Z,1034.00
2023-12-07T09:43:17.234Z,1035.00
2023-12-07T09:44:17.172Z,1031.00
2023-12-07T09:45:17.166Z,1034.00
2023-12-07T09:46:17.293Z,1034.00
2023-12-07T09:47:22.268Z,960.00
2023-12-07T09:48:18.365Z,772.00
2023-12-07T09:49:17.216Z,747.00
2023-12-07T09:50:17.226Z,681.00
2023-12-07T09:51:17.191Z,648.00
2023-12-07T09:52:17.267Z,617.00
2023-12-07T09:53:17.216Z,599.00
2023-12-07T09:54:17.221Z,612.00
2023-12-07T09:55:17.236Z,638.00
2023-12-07T09:56:17.257Z,693.00
2023-12-07T09:57:17.202Z,740.00
2023-12-07T09:58:20.499Z,782.00
2023-12-07T09:59:18.238Z,918.00
2023-12-07T10:00:17.231Z,902.00
2023-12-07T10:01:17.402Z,909.00
2023-12-07T10:02:17.201Z,923.00
2023-12-07T10:03:17.294Z,970.00
2023-12-07T10:04:17.349Z,981.00
2023-12-07T10:05:17.336Z,986.00
2023-12-07T10:06:17.252Z,986.00
2023-12-07T10:07:17.243Z,994.00
2023-12-07T10:08:17.200Z,1003.00
2023-12-07T10:09:20.642Z,1019.00
2023-12-07T10:10:18.323Z,1045.00
2023-12-07T10:11:17.314Z,1054.00
2023-12-07T10:12:17.230Z,1066.00
2023-12-07T10:13:17.271Z,1125.00
2023-12-07T10:14:17.238Z,1143.00
2023-12-07T10:15:17.220Z,1146.00
2023-12-07T10:16:17.391Z,1161.00
2023-12-07T10:17:17.283Z,1213.00
2023-12-07T10:18:17.331Z,1225.00
2023-12-07T10:19:29.378Z,1232.00
2023-12-07T10:20:18.318Z,1242.00
2023-12-07T10:21:17.289Z,1233.00
2023-12-07T10:22:17.400Z,913.00
2023-12-07T10:23:17.280Z,804.00
2023-12-07T10:24:17.280Z,752.00
2023-12-07T10:25:18.074Z,728.00
2023-12-07T10:26:17.330Z,672.00
2023-12-07T10:27:17.268Z,679.00
2023-12-07T10:28:17.326Z,667.00
2023-12-07T10:29:24.442Z,664.00
2023-12-07T10:30:18.296Z,739.00
2023-12-07T10:31:17.321Z,783.00
2023-12-07T10:32:17.270Z,799.00
2023-12-07T10:33:17.436Z,871.00
2023-12-07T10:34:17.352Z,882.00
2023-12-07T10:35:17.330Z,899.00
2023-12-07T10:36:17.352Z,918.00
2023-12-07T10:37:17.340Z,929.00
2023-12-07T10:38:17.288Z,942.00
2023-12-07T10:39:21.727Z,953.00
2023-12-07T10:40:18.325Z,1005.00
2023-12-07T10:41:17.329Z,1020.00
2023-12-07T10:42:17.338Z,1024.00
2023-12-07T10:43:17.325Z,1030.00
2023-12-07T10:44:17.301Z,1035.00
2023-12-07T10:45:17.321Z,1045.00
2023-12-07T10:46:17.323Z,1053.00
2023-12-07T10:47:17.309Z,1060.00
2023-12-07T10:48:17.389Z,1077.00
2023-12-07T10:49:21.861Z,1114.00
2023-12-07T10:50:18.373Z,1119.00
2023-12-07T10:51:17.302Z,1129.00
2023-12-07T10:52:17.408Z,1153.00
2023-12-07T10:53:17.350Z,1140.00
2023-12-07T10:54:17.330Z,1139.00
2023-12-07T10:55:17.337Z,1146.00
2023-12-07T10:56:17.303Z,1183.00
2023-12-07T10:57:17.857Z,1195.00
2023-12-07T10:58:17.407Z,1212.00
2023-12-07T10:59:23.741Z,1222.00
2023-12-07T11:00:19.525Z,1237.00
2023-12-07T11:01:17.415Z,1247.00
2023-12-07T11:02:19.958Z,1259.00
2023-12-07T11:03:17.568Z,1255.00
2023-12-07T11:04:17.397Z,1351.00
2023-12-07T11:05:17.381Z,1337.00
2023-12-07T11:06:17.416Z,1325.00
2023-12-07T11:07:17.354Z,1335.00
2023-12-07T11:08:17.330Z,1345.00
2023-12-07T11:09:23.356Z,1347.00
2023-12-07T11:10:18.383Z,1345.00
2023-12-07T11:11:17.346Z,1358.00
2023-12-07T11:12:17.389Z,1365.00
2023-12-07T11:13:17.365Z,1402.00
2023-12-07T11:14:17.574Z,1420.00
2023-12-07T11:15:17.354Z,1422.00
2023-12-07T11:16:17.373Z,1416.00
2023-12-07T11:17:17.351Z,1419.00
2023-12-07T11:18:17.375Z,1430.00
2023-12-07T11:19:22.630Z,1495.00
2023-12-07T11:20:18.424Z,1500.00
2023-12-07T11:21:17.376Z,1504.00
2023-12-07T11:22:17.400Z,1529.00
2023-12-07T11:23:17.335Z,1504.00
2023-12-07T11:24:17.357Z,1477.00
2023-12-07T11:25:17.383Z,1469.00
2023-12-07T11:26:17.387Z,1471.00
2023-12-07T11:27:17.327Z,1467.00
2023-12-07T11:28:17.466Z,1463.00
2023-12-07T11:29:19.031Z,1455.00
2023-12-07T11:30:18.383Z,1450.00
2023-12-07T11:31:17.402Z,1424.00
2023-12-07T11:32:22.803Z,1395.00
2023-12-07T11:33:18.515Z,1384.00
2023-12-07T11:34:17.360Z,1330.00
2023-12-07T11:35:17.365Z,1337.00
2023-12-07T11:36:17.409Z,1339.00
2023-12-07T11:37:17.415Z,1336.00
2023-12-07T11:38:17.359Z,1336.00
2023-12-07T11:39:21.242Z,1332.00
2023-12-07T11:40:18.401Z,1336.00
2023-12-07T11:41:17.405Z,1344.00
2023-12-07T11:42:17.405Z,1352.00
2023-12-07T11:43:17.423Z,1362.00
2023-12-07T11:44:17.423Z,1367.00
2023-12-07T11:45:17.404Z,1378.00
2023-12-07T11:46:17.484Z,1389.00
2023-12-07T11:47:17.461Z,1393.00
2023-12-07T11:48:18.798Z,1400.00
2023-12-07T11:49:25.296Z,1401.00
2023-12-07T11:50:18.457Z,1410.00
2023-12-07T11:51:17.430Z,1418.00
2023-12-07T11:52:17.501Z,1451.00
2023-12-07T11:53:17.441Z,1471.00
2023-12-07T11:54:17.395Z,1497.00
2023-12-07T11:55:17.520Z,1498.00
2023-12-07T11:56:17.427Z,1493.00
2023-12-07T11:57:17.472Z,1484.00
2023-12-07T11:58:17.465Z,1483.00
2023-12-07T11:59:21.872Z,1478.00
2023-12-07T12:00:17.447Z,1480.00
2023-12-07T12:01:17.513Z,1485.00
2023-12-07T12:02:17.513Z,1483.00
2023-12-07T12:03:17.470Z,1481.00
2023-12-07T12:04:17.448Z,1478.00
2023-12-07T12:05:17.577Z,1482.00
2023-12-07T12:06:17.472Z,1477.00
2023-12-07T12:07:17.468Z,1477.00
2023-12-07T12:08:17.441Z,1477.00
2023-12-07T12:09:20.576Z,1482.00
2023-12-07T12:10:18.488Z,1475.00
2023-12-07T12:11:17.447Z,1467.00
2023-12-07T12:12:17.491Z,1437.00
2023-12-07T12:13:17.519Z,1425.00
2023-12-07T12:14:18.102Z,1404.00
2023-12-07T12:15:17.495Z,1348.00
2023-12-07T12:16:17.532Z,1316.00
2023-12-07T12:17:17.481Z,1303.00
2023-12-07T12:18:17.580Z,1290.00
2023-12-07T12:19:25.920Z,1276.00
2023-12-07T12:20:18.611Z,1261.00
2023-12-07T12:21:17.490Z,1255.00
2023-12-07T12:22:17.497Z,1248.00
2023-12-07T12:23:17.479Z,1238.00
2023-12-07T12:24:17.502Z,1224.00
2023-12-07T12:25:17.668Z,1218.00
2023-12-07T12:26:17.481Z,1208.00
2023-12-07T12:27:17.521Z,1195.00
2023-12-07T12:28:17.535Z,1182.00
2023-12-07T12:29:23.626Z,1174.00
2023-12-07T12:30:20.030Z,1167.00
2023-12-07T12:31:18.518Z,1165.00
2023-12-07T12:32:17.532Z,1163.00
2023-12-07T12:33:17.500Z,1161.00
2023-12-07T12:34:17.650Z,1160.00
2023-12-07T12:35:17.525Z,1156.00
2023-12-07T12:36:17.770Z,1151.00
2023-12-07T12:37:17.519Z,1146.00
2023-12-07T12:38:24.426Z,1139.00
2023-12-07T12:39:26.769Z,1139.00
2023-12-07T12:40:18.709Z,1133.00
2023-12-07T12:41:17.488Z,1126.00
2023-12-07T12:42:17.542Z,1117.00
2023-12-07T12:43:17.561Z,1119.00
2023-12-07T12:44:24.592Z,1116.00
2023-12-07T12:45:18.653Z,1108.00
2023-12-07T12:46:17.625Z,1121.00
2023-12-07T12:47:17.529Z,1109.00
2023-12-07T12:48:17.556Z,1107.00
2023-12-07T12:49:17.568Z,1095.00
2023-12-07T12:50:17.540Z,1088.00
2023-12-07T12:51:17.534Z,1088.00
2023-12-07T12:52:17.782Z,1093.00
2023-12-07T12:53:17.535Z,1096.00
2023-12-07T12:54:23.484Z,1096.00
2023-12-07T12:55:18.577Z,1102.00
2023-12-07T12:56:17.555Z,1101.00
2023-12-07T12:57:17.577Z,1107.00
2023-12-07T12:58:17.542Z,1102.00
2023-12-07T12:59:17.557Z,1103.00
2023-12-07T13:00:17.560Z,1163.00
2023-12-07T13:01:17.667Z,1171.00
2023-12-07T13:02:17.575Z,1156.00
2023-12-07T13:03:17.534Z,1155.00
2023-12-07T13:04:17.633Z,1164.00
2023-12-07T13:05:17.590Z,1148.00
2023-12-07T13:06:17.574Z,1095.00
2023-12-07T13:07:17.608Z,1082.00
2023-12-07T13:08:17.627Z,1075.00
2023-12-07T13:09:17.535Z,1063.00
2023-12-07T13:10:17.596Z,1038.00
2023-12-07T13:11:17.553Z,1028.00
2023-12-07T13:12:17.564Z,1023.00
2023-12-07T13:13:17.585Z,1012.00
2023-12-07T13:14:17.713Z,1007.00
2023-12-07T13:15:17.606Z,1006.00
2023-12-07T13:16:17.714Z,1066.00
2023-12-07T13:17:17.679Z,1107.00
2023-12-07T13:18:17.799Z,1080.00
2023-12-07T13:19:17.840Z,1057.00
2023-12-07T13:20:17.833Z,1061.00
2023-12-07T13:21:18.011Z,1075.00
2023-12-07T13:22:17.948Z,1078.00
2023-12-07T13:23:17.894Z,1073.00
2023-12-07T13:24:17.969Z,1061.00
2023-12-07T13:25:18.112Z,1058.00
2023-12-07T13:26:17.948Z,1054.00
2023-12-07T13:27:18.054Z,1048.00
2023-12-07T13:28:18.211Z,1032.00
2023-12-07T13:29:24.618Z,994.00
2023-12-07T13:30:19.249Z,994.00
2023-12-07T13:31:18.221Z,991.00
2023-12-07T13:32:18.046Z,995.00
2023-12-07T13:33:25.414Z,994.00
2023-12-07T13:34:23.795Z,992.00
2023-12-07T13:35:18.410Z,990.00
2023-12-07T13:36:35.243Z,985.00
2023-12-07T13:37:18.335Z,982.00
2023-12-07T13:38:19.293Z,975.00
2023-12-07T13:39:28.029Z,973.00
2023-12-07T13:40:19.347Z,972.00
2023-12-07T13:41:18.338Z,970.00
2023-12-07T13:42:18.340Z,964.00
2023-12-07T13:43:19.024Z,963.00
2023-12-07T13:44:25.175Z,963.00
2023-12-07T13:45:19.312Z,962.00
2023-12-07T13:46:18.350Z,959.00
2023-12-07T13:47:18.344Z,957.00
2023-12-07T13:48:18.394Z,960.00
2023-12-07T13:49:22.110Z,967.00
2023-12-07T13:50:19.315Z,961.00
2023-12-07T13:51:18.407Z,958.00
2023-12-07T13:52:18.374Z,963.00
2023-12-07T13:53:18.346Z,969.00
2023-12-07T13:54:34.754Z,968.00
2023-12-07T13:55:19.365Z,971.00
2023-12-07T13:56:18.380Z,966.00
2023-12-07T13:57:18.365Z,966.00
2023-12-07T13:58:18.443Z,969.00
2023-12-07T13:59:18.400Z,967.00
2023-12-07T14:00:18.340Z,965.00
2023-12-07T14:01:18.412Z,964.00
2023-12-07T14:02:18.390Z,960.00
2023-12-07T14:03:18.441Z,960.00
2023-12-07T14:04:26.691Z,959.00
2023-12-07T14:05:21.917Z,961.00
2023-12-07T14:06:25.165Z,957.00
2023-12-07T14:07:19.415Z,966.00
2023-12-07T14:08:18.398Z,976.00
2023-12-07T14:09:18.408Z,974.00
2023-12-07T14:10:18.436Z,971.00
2023-12-07T14:11:18.413Z,977.00
2023-12-07T14:12:18.386Z,985.00
2023-12-07T14:13:18.461Z,937.00
2023-12-07T14:14:18.476Z,926.00
2023-12-07T14:15:23.625Z,926.00
2023-12-07T14:16:27.401Z,908.00
2023-12-07T14:17:20.225Z,889.00
2023-12-07T14:18:18.650Z,875.00
2023-12-07T14:19:18.490Z,861.00
2023-12-07T14:20:34.404Z,852.00
2023-12-07T14:21:28.389Z,845.00
2023-12-07T14:22:19.489Z,839.00
2023-12-07T14:23:18.436Z,827.00
2023-12-07T14:24:18.410Z,821.00
2023-12-07T14:25:18.421Z,812.00
2023-12-07T14:26:18.460Z,803.00
2023-12-07T14:27:18.471Z,800.00
2023-12-07T14:28:18.433Z,791.00
2023-12-07T14:29:23.459Z,782.00
2023-12-07T14:30:19.459Z,777.00
2023-12-07T14:31:18.456Z,770.00
2023-12-07T14:32:18.454Z,763.00
2023-12-07T14:33:18.518Z,755.00
2023-12-07T14:34:23.718Z,748.00
2023-12-07T14:35:19.791Z,742.00
2023-12-07T14:36:18.585Z,740.00
2023-12-07T14:37:18.606Z,733.00
2023-12-07T14:38:18.603Z,729.00
2023-12-07T14:39:18.466Z,723.00
2023-12-07T14:40:18.595Z,721.00
2023-12-07T14:41:18.502Z,718.00
2023-12-07T14:42:18.481Z,714.00
2023-12-07T14:43:19.588Z,711.00
2023-12-07T14:45:19.491Z,708.00
2023-12-07T14:46:21.071Z,707.00
2023-12-07T14:47:18.494Z,701.00
2023-12-07T14:48:18.697Z,697.00
2023-12-07T14:49:18.641Z,696.00
2023-12-07T14:50:19.940Z,695.00
2023-12-07T14:51:19.320Z,690.00
2023-12-07T14:52:18.590Z,690.00
2023-12-07T14:53:18.601Z,689.00
2023-12-07T14:55:18.642Z,685.00
2023-12-07T14:56:18.658Z,746.00
2023-12-07T14:57:18.671Z,727.00
2023-12-07T14:58:18.702Z,716.00
2023-12-07T14:59:18.740Z,705.00
2023-12-07T15:00:18.743Z,698.00
2023-12-07T15:01:18.820Z,695.00
2023-12-07T15:02:18.788Z,696.00
2023-12-07T15:03:18.924Z,702.00
2023-12-07T15:04:27.853Z,706.00
2023-12-07T15:05:19.927Z,705.00
2023-12-07T15:06:19.020Z,700.00
2023-12-07T15:07:18.828Z,697.00
2023-12-07T15:08:18.844Z,696.00
2023-12-07T15:09:18.826Z,695.00
2023-12-07T15:10:18.850Z,697.00
2023-12-07T15:11:18.863Z,701.00
2023-12-07T15:12:18.921Z,702.00
2023-12-07T15:13:18.879Z,701.00
2023-12-07T15:14:29.852Z,700.00
2023-12-07T15:15:19.914Z,702.00
2023-12-07T15:16:18.897Z,702.00
2023-12-07T15:17:18.864Z,701.00
2023-12-07T15:18:18.969Z,702.00
2023-12-07T15:19:18.962Z,703.00
2023-12-07T15:20:18.895Z,702.00
2023-12-07T15:21:18.948Z,701.00
2023-12-07T15:22:18.864Z,700.00
2023-12-07T15:23:18.850Z,701.00
2023-12-07T15:24:23.488Z,702.00
2023-12-07T15:25:19.890Z,702.00
2023-12-07T15:26:18.885Z,701.00
2023-12-07T15:27:18.899Z,702.00
2023-12-07T15:28:18.928Z,700.00
2023-12-07T15:29:18.873Z,701.00
2023-12-07T15:30:18.862Z,701.00
2023-12-07T15:31:18.907Z,703.00
2023-12-07T15:32:18.910Z,704.00
2023-12-07T15:33:19.032Z,707.00
2023-12-07T15:34:25.671Z,706.00
2023-12-07T15:35:19.917Z,706.00
2023-12-07T15:36:19.041Z,704.00
2023-12-07T15:37:18.908Z,701.00
2023-12-07T15:38:18.939Z,700.00
2023-12-07T15:39:18.949Z,697.00
2023-12-07T15:40:18.939Z,697.00
2023-12-07T15:41:18.935Z,698.00
2023-12-07T15:42:18.894Z,701.00
2023-12-07T15:43:18.963Z,705.00
2023-12-07T15:44:22.900Z,707.00
2023-12-07T15:45:19.936Z,709.00
2023-12-07T15:46:18.922Z,707.00
2023-12-07T15:47:18.897Z,706.00
2023-12-07T15:48:19.033Z,707.00
2023-12-07T15:49:19.020Z,709.00
2023-12-07T15:50:18.946Z,709.00
2023-12-07T15:51:18.953Z,707.00
2023-12-07T15:52:19.013Z,707.00
2023-12-07T15:53:18.929Z,709.00
2023-12-07T15:54:27.260Z,706.00
2023-12-07T15:55:19.928Z,703.00
2023-12-07T15:56:24.393Z,701.00
2023-12-07T15:57:19.945Z,703.00
2023-12-07T15:58:18.997Z,704.00
2023-12-07T15:59:18.936Z,706.00
2023-12-07T16:00:18.934Z,707.00
2023-12-07T16:01:18.950Z,705.00
2023-12-07T16:02:18.940Z,706.00
2023-12-07T16:03:18.940Z,707.00
2023-12-07T16:04:26.623Z,706.00
2023-12-07T16:05:19.961Z,707.00
2023-12-07T16:06:18.960Z,706.00
2023-12-07T16:07:18.960Z,707.00
2023-12-07T16:08:18.988Z,708.00
2023-12-07T16:09:19.077Z,705.00
2023-12-07T16:10:18.989Z,702.00
2023-12-07T16:11:18.952Z,703.00
2023-12-07T16:12:18.959Z,706.00
2023-12-07T16:13:18.968Z,704.00
2023-12-07T16:14:24.432Z,705.00
2023-12-07T16:15:20.055Z,707.00
2023-12-07T16:16:18.981Z,708.00
2023-12-07T16:17:18.987Z,707.00
2023-12-07T16:18:19.121Z,706.00
2023-12-07T16:19:19.080Z,706.00
2023-12-07T16:20:19.015Z,706.00
2023-12-07T16:21:18.978Z,704.00
2023-12-07T16:22:19.012Z,703.00
2023-12-07T16:23:18.980Z,705.00
2023-12-07T16:24:19.059Z,706.00
2023-12-07T16:25:22.981Z,708.00
2023-12-07T16:26:19.015Z,708.00
2023-12-07T16:27:19.023Z,709.00
2023-12-07T16:28:19.010Z,709.00
2023-12-07T16:29:19.025Z,711.00
2023-12-07T16:30:19.045Z,709.00
2023-12-07T16:31:18.999Z,708.00
2023-12-07T16:32:19.022Z,704.00
2023-12-07T16:33:19.168Z,706.00
2023-12-07T16:34:19.436Z,705.00
2023-12-07T16:35:18.990Z,709.00
2023-12-07T16:36:23.064Z,710.00
2023-12-07T16:37:19.029Z,710.00
2023-12-07T16:38:19.054Z,706.00
2023-12-07T16:39:19.046Z,706.00
2023-12-07T16:40:19.022Z,705.00
2023-12-07T16:41:19.027Z,709.00
2023-12-07T16:42:19.032Z,711.00
2023-12-07T16:43:19.021Z,711.00
2023-12-07T16:44:19.030Z,710.00
2023-12-07T16:45:19.153Z,711.00
2023-12-07T16:46:19.041Z,711.00
2023-12-07T16:47:19.045Z,709.00
2023-12-07T16:48:19.201Z,706.00
2023-12-07T16:49:19.099Z,706.00
2023-12-07T16:50:19.035Z,707.00
2023-12-07T16:51:19.059Z,708.00
2023-12-07T16:52:19.031Z,706.00
2023-12-07T16:53:19.032Z,704.00
2023-12-07T16:54:19.026Z,703.00
2023-12-07T16:55:19.040Z,701.00
2023-12-07T16:56:19.041Z,702.00
2023-12-07T16:57:19.054Z,704.00
2023-12-07T16:59:19.051Z,707.00
2023-12-07T17:00:19.079Z,705.00
2023-12-07T17:01:19.103Z,707.00
2023-12-07T17:02:19.034Z,706.00
2023-12-07T17:03:20.703Z,705.00
2023-12-07T17:04:19.133Z,702.00
2023-12-07T17:05:19.057Z,700.00
2023-12-07T17:06:19.094Z,700.00
2023-12-07T17:07:19.098Z,699.00
2023-12-07T17:08:19.085Z,703.00
2023-12-07T17:09:19.190Z,707.00
2023-12-07T17:10:19.096Z,709.00
2023-12-07T17:11:19.074Z,707.00
2023-12-07T17:12:19.051Z,707.00
2023-12-07T17:13:19.100Z,706.00
2023-12-07T17:14:19.075Z,704.00
2023-12-07T17:15:19.102Z,705.00
2023-12-07T17:16:19.125Z,705.00
2023-12-07T17:17:19.087Z,705.00
2023-12-07T17:18:19.262Z,706.00
2023-12-07T17:19:19.277Z,708.00
2023-12-07T17:20:19.093Z,708.00
2023-12-07T17:21:19.109Z,709.00
2023-12-07T17:22:19.111Z,708.00
2023-12-07T17:23:19.092Z,708.00
2023-12-07T17:24:19.134Z,708.00
2023-12-07T17:25:19.154Z,707.00
2023-12-07T17:26:19.214Z,700.00
2023-12-07T17:27:19.171Z,698.00
2023-12-07T17:28:19.211Z,699.00
2023-12-07T17:29:19.200Z,697.00
2023-12-07T17:30:19.234Z,696.00
2023-12-07T17:31:19.302Z,696.00
2023-12-07T17:32:19.315Z,694.00
2023-12-07T17:33:19.523Z,697.00
2023-12-07T17:34:19.695Z,697.00
2023-12-07T17:35:19.338Z,697.00
2023-12-07T17:36:19.398Z,696.00
2023-12-07T17:37:19.388Z,695.00
2023-12-07T17:38:19.436Z,696.00
2023-12-07T17:39:19.530Z,694.00
2023-12-07T17:40:19.442Z,696.00
2023-12-07T17:41:19.544Z,696.00
2023-12-07T17:42:19.539Z,691.00
2023-12-07T17:43:19.550Z,689.00
2023-12-07T17:44:19.646Z,691.00
2023-12-07T17:45:19.615Z,693.00
2023-12-07T17:46:19.639Z,695.00
2023-12-07T17:47:19.650Z,695.00
2023-12-07T17:48:19.742Z,697.00
2023-12-07T17:49:19.785Z,698.00
2023-12-07T17:50:19.708Z,699.00
2023-12-07T17:51:19.746Z,699.00
2023-12-07T17:52:19.762Z,696.00
2023-12-07T17:53:19.809Z,694.00
2023-12-07T17:54:19.815Z,692.00
2023-12-07T17:55:19.831Z,691.00
2023-12-07T17:56:19.871Z,693.00
2023-12-07T17:57:19.920Z,693.00
2023-12-07T17:58:19.904Z,695.00
2023-12-07T17:59:19.939Z,693.00
2023-12-07T18:00:19.980Z,695.00
